createdAt,value
2022-07-30T00:00:37.354Z,15.79
2022-07-30T00:03:06.459Z,15.80
2022-07-30T00:05:36.774Z,15.80
2022-07-30T00:08:06.161Z,15.79
2022-07-30T00:10:35.641Z,15.83
2022-07-30T00:13:05.651Z,15.81
2022-07-30T00:15:34.648Z,15.90
2022-07-30T00:18:03.510Z,15.84
2022-07-30T00:20:33.525Z,15.88
2022-07-30T00:23:07.279Z,15.85
2022-07-30T00:25:36.204Z,15.88
2022-07-30T00:28:05.183Z,15.89
2022-07-30T00:30:34.031Z,15.86
2022-07-30T00:33:04.019Z,15.87
2022-07-30T00:35:32.848Z,15.88
2022-07-30T00:38:01.654Z,15.86
2022-07-30T00:40:32.213Z,15.84
2022-07-30T00:43:00.990Z,15.96
2022-07-30T00:45:30.209Z,15.89
2022-07-30T00:48:01.625Z,15.94
2022-07-30T00:50:30.523Z,15.92
2022-07-30T00:52:59.390Z,15.88
2022-07-30T00:55:28.296Z,15.86
2022-07-30T00:57:58.481Z,15.88
2022-07-30T01:00:28.559Z,15.84
2022-07-30T01:02:57.568Z,15.88
2022-07-30T01:05:26.437Z,15.86
2022-07-30T01:07:55.208Z,15.85
2022-07-30T01:10:24.451Z,15.87
2022-07-30T01:12:54.648Z,15.86
2022-07-30T01:15:24.974Z,15.89
2022-07-30T01:18:01.486Z,15.85
2022-07-30T01:20:40.041Z,15.86
2022-07-30T01:23:19.595Z,15.83
2022-07-30T01:25:58.126Z,15.87
2022-07-30T01:28:32.676Z,15.85
2022-07-30T01:31:04.176Z,15.83
2022-07-30T01:33:36.678Z,15.82
2022-07-30T01:36:10.207Z,15.83
2022-07-30T01:38:41.337Z,15.81
2022-07-30T01:41:19.427Z,15.86
2022-07-30T01:43:48.880Z,15.80
2022-07-30T01:46:19.435Z,15.91
2022-07-30T01:48:58.062Z,15.90
2022-07-30T01:51:33.312Z,15.96
2022-07-30T01:54:10.941Z,15.94
2022-07-30T01:56:43.833Z,15.86
2022-07-30T01:59:17.426Z,15.91
2022-07-30T02:01:49.852Z,15.94
2022-07-30T02:04:18.859Z,15.86
2022-07-30T02:06:58.341Z,15.83
2022-07-30T02:09:39.242Z,15.80
2022-07-30T02:12:31.625Z,15.79
2022-07-30T02:15:18.072Z,15.74
2022-07-30T02:18:05.489Z,15.69
2022-07-30T02:20:38.547Z,15.67
2022-07-30T02:23:12.428Z,15.52
2022-07-30T02:25:47.876Z,15.52
2022-07-30T02:28:29.478Z,15.45
2022-07-30T02:31:02.050Z,15.46
2022-07-30T02:33:50.905Z,15.42
2022-07-30T02:36:21.233Z,15.36
2022-07-30T02:38:51.948Z,15.30
2022-07-30T02:41:23.929Z,15.30
2022-07-30T02:43:58.877Z,15.20
2022-07-30T02:46:32.661Z,15.18
2022-07-30T02:49:23.901Z,15.13
2022-07-30T02:51:53.848Z,15.11
2022-07-30T02:54:26.476Z,15.06
2022-07-30T02:56:58.741Z,15.00
2022-07-30T02:59:32.440Z,15.09
2022-07-30T03:02:04.846Z,15.08
2022-07-30T03:04:35.145Z,15.12
2022-07-30T03:07:08.556Z,15.06
2022-07-30T03:09:51.430Z,15.07
2022-07-30T03:12:23.111Z,15.05
2022-07-30T03:14:55.193Z,15.04
2022-07-30T03:17:28.467Z,15.04
2022-07-30T03:20:00.841Z,15.07
2022-07-30T03:22:33.134Z,15.11
2022-07-30T03:25:04.734Z,15.10
2022-07-30T03:27:34.347Z,15.16
2022-07-30T03:30:08.575Z,15.14
2022-07-30T03:32:38.657Z,15.25
2022-07-30T03:35:17.166Z,15.27
2022-07-30T03:37:49.825Z,15.27
2022-07-30T03:40:20.782Z,15.39
2022-07-30T03:42:53.285Z,15.36
2022-07-30T03:45:27.335Z,15.44
2022-07-30T03:48:05.324Z,15.43
2022-07-30T03:50:38.304Z,15.43
2022-07-30T03:53:09.996Z,15.47
2022-07-30T03:55:59.655Z,15.59
2022-07-30T03:58:47.584Z,15.59
2022-07-30T04:01:18.461Z,15.62
2022-07-30T04:03:47.683Z,15.71
2022-07-30T04:06:16.584Z,15.78
2022-07-30T04:08:46.635Z,15.83
2022-07-30T04:11:15.761Z,15.93
2022-07-30T04:14:00.859Z,16.04
2022-07-30T04:16:43.599Z,16.10
2022-07-30T04:19:22.914Z,16.18
2022-07-30T04:21:54.791Z,16.31
2022-07-30T04:24:26.187Z,16.42
2022-07-30T04:26:55.931Z,16.46
2022-07-30T04:29:25.067Z,16.53
2022-07-30T04:31:59.024Z,16.54
2022-07-30T04:34:53.536Z,16.65
2022-07-30T04:37:41.380Z,16.75
2022-07-30T04:40:11.741Z,16.80
2022-07-30T04:42:40.504Z,16.72
2022-07-30T04:45:13.895Z,16.82
2022-07-30T04:48:13.377Z,16.95
2022-07-30T04:51:06.887Z,17.01
2022-07-30T04:53:39.604Z,17.08
2022-07-30T04:56:10.598Z,17.14
2022-07-30T04:58:41.551Z,17.25
2022-07-30T05:01:19.771Z,17.36
2022-07-30T05:03:53.796Z,17.46
2022-07-30T05:06:24.030Z,17.43
2022-07-30T05:08:55.335Z,17.47
2022-07-30T05:11:24.329Z,17.59
2022-07-30T05:13:54.515Z,17.63
2022-07-30T05:16:25.019Z,17.70
2022-07-30T05:19:01.132Z,17.91
2022-07-30T05:21:37.116Z,18.06
2022-07-30T05:24:07.108Z,18.09
2022-07-30T05:26:39.576Z,18.26
2022-07-30T05:29:19.528Z,18.33
2022-07-30T05:32:03.249Z,18.35
2022-07-30T05:34:49.813Z,18.41
2022-07-30T05:37:22.592Z,18.44
2022-07-30T05:39:58.892Z,18.49
2022-07-30T05:42:38.137Z,18.67
2022-07-30T05:45:11.340Z,18.67
2022-07-30T05:47:41.426Z,18.67
2022-07-30T05:50:12.825Z,18.71
2022-07-30T05:52:42.938Z,18.70
2022-07-30T05:55:35.479Z,18.68
2022-07-30T05:58:31.616Z,18.52
2022-07-30T06:01:01.384Z,18.55
2022-07-30T06:03:32.680Z,18.55
2022-07-30T06:06:23.309Z,18.53
2022-07-30T06:08:53.235Z,18.47
2022-07-30T06:11:22.638Z,18.43
2022-07-30T06:13:51.521Z,18.40
2022-07-30T06:16:21.143Z,18.28
2022-07-30T06:18:50.242Z,18.42
2022-07-30T06:22:05.508Z,18.44
2022-07-30T06:24:20.492Z,18.46
2022-07-30T06:27:13.000Z,18.37
2022-07-30T06:29:41.940Z,18.43
2022-07-30T06:32:11.602Z,18.33
2022-07-30T06:34:40.587Z,18.18
2022-07-30T06:37:11.142Z,18.22
2022-07-30T06:39:57.946Z,18.16
2022-07-30T06:42:42.239Z,18.18
2022-07-30T06:45:29.306Z,18.17
2022-07-30T06:48:19.142Z,18.26
2022-07-30T06:50:48.250Z,18.26
2022-07-30T06:53:19.016Z,18.40
2022-07-30T06:56:08.073Z,18.52
2022-07-30T06:58:45.853Z,18.51
2022-07-30T07:01:33.410Z,18.40
2022-07-30T07:04:03.801Z,18.41
2022-07-30T07:06:33.027Z,18.38
2022-07-30T07:09:04.246Z,18.54
2022-07-30T07:11:40.890Z,18.63
2022-07-30T07:14:13.291Z,18.74
2022-07-30T07:16:42.493Z,18.81
2022-07-30T07:20:01.785Z,18.89
2022-07-30T07:22:27.868Z,18.91
2022-07-30T07:24:58.358Z,18.81
2022-07-30T07:27:32.710Z,18.93
2022-07-30T07:30:05.445Z,18.88
2022-07-30T07:32:37.724Z,18.97
2022-07-30T07:35:08.448Z,18.98
2022-07-30T07:37:40.923Z,19.03
2022-07-30T07:40:14.488Z,19.10
2022-07-30T07:42:45.614Z,19.12
2022-07-30T07:45:15.987Z,19.31
2022-07-30T07:48:01.064Z,19.51
2022-07-30T07:51:00.543Z,19.66
2022-07-30T07:53:36.758Z,19.80
2022-07-30T07:56:09.221Z,19.69
2022-07-30T07:58:38.330Z,19.57
2022-07-30T08:01:11.653Z,19.66
2022-07-30T08:04:03.724Z,19.68
2022-07-30T08:07:11.502Z,19.75
2022-07-30T08:09:56.409Z,19.73
2022-07-30T08:12:48.385Z,19.53
2022-07-30T08:15:39.097Z,19.27
2022-07-30T08:18:10.695Z,19.24
2022-07-30T08:20:58.633Z,19.14
2022-07-30T08:23:34.310Z,19.06
2022-07-30T08:26:03.182Z,19.01
2022-07-30T08:28:36.003Z,18.97
2022-07-30T08:31:07.309Z,18.94
2022-07-30T08:33:43.772Z,19.00
2022-07-30T08:36:13.022Z,18.99
2022-07-30T08:38:46.764Z,19.03
2022-07-30T08:41:23.402Z,19.22
2022-07-30T08:43:55.662Z,19.27
2022-07-30T08:46:28.997Z,19.45
2022-07-30T08:49:12.740Z,19.68
2022-07-30T08:51:45.616Z,19.62
2022-07-30T08:54:35.066Z,19.73
2022-07-30T08:57:06.360Z,19.78
2022-07-30T08:59:59.866Z,19.89
2022-07-30T09:02:33.084Z,20.08
2022-07-30T09:05:07.957Z,20.15
2022-07-30T09:07:43.788Z,20.29
2022-07-30T09:10:20.093Z,20.26
2022-07-30T09:12:48.939Z,20.37
2022-07-30T09:15:23.686Z,20.40
2022-07-30T09:17:57.885Z,20.38
2022-07-30T09:20:34.969Z,20.30
2022-07-30T09:23:09.528Z,20.14
2022-07-30T09:26:01.195Z,19.84
2022-07-30T09:28:50.902Z,19.71
2022-07-30T09:31:56.093Z,19.54
2022-07-30T09:34:53.615Z,19.53
2022-07-30T09:37:42.984Z,19.55
2022-07-30T09:40:57.335Z,19.78
2022-07-30T09:43:50.855Z,19.78
2022-07-30T09:46:47.998Z,19.98
2022-07-30T09:49:25.814Z,20.22
2022-07-30T09:52:02.067Z,20.21
2022-07-30T09:57:58.907Z,20.16
2022-07-30T10:00:34.029Z,20.10
2022-07-30T10:03:34.274Z,20.11
2022-07-30T10:06:48.974Z,20.17
2022-07-30T10:09:37.963Z,20.30
2022-07-30T10:12:11.524Z,20.44
2022-07-30T10:14:48.317Z,20.65
2022-07-30T10:17:20.864Z,20.85
2022-07-30T10:20:27.906Z,20.96
2022-07-30T10:23:16.124Z,21.05
2022-07-30T10:26:06.367Z,21.14
2022-07-30T10:28:55.443Z,21.05
2022-07-30T10:31:48.591Z,20.86
2022-07-30T10:34:19.686Z,20.67
2022-07-30T10:37:01.813Z,20.66
2022-07-30T10:39:40.699Z,20.49
2022-07-30T10:42:29.968Z,20.40
2022-07-30T10:45:18.533Z,20.35
2022-07-30T10:47:50.022Z,20.21
2022-07-30T10:50:26.956Z,20.14
2022-07-30T10:53:01.263Z,20.17
2022-07-30T10:55:38.537Z,20.28
2022-07-30T10:58:10.697Z,20.48
2022-07-30T11:01:00.723Z,20.76
2022-07-30T11:03:40.538Z,20.98
2022-07-30T11:06:31.904Z,21.00
2022-07-30T11:09:02.106Z,21.07
2022-07-30T11:12:05.763Z,21.11
2022-07-30T11:15:06.844Z,21.41
2022-07-30T11:18:12.351Z,21.61
2022-07-30T11:20:48.723Z,21.47
2022-07-30T11:23:40.004Z,21.52
2022-07-30T11:26:14.114Z,21.49
2022-07-30T11:28:49.576Z,21.45
2022-07-30T11:31:55.006Z,21.26
2022-07-30T11:34:31.208Z,21.13
2022-07-30T11:37:19.226Z,21.13
2022-07-30T11:40:12.194Z,21.10
2022-07-30T11:42:44.797Z,20.90
2022-07-30T11:45:27.159Z,20.56
2022-07-30T11:48:00.449Z,20.46
2022-07-30T11:50:33.466Z,20.40
2022-07-30T11:53:04.613Z,20.68
2022-07-30T11:55:36.228Z,20.88
2022-07-30T11:58:09.061Z,21.06
2022-07-30T12:00:48.034Z,21.11
2022-07-30T12:03:20.281Z,21.15
2022-07-30T12:05:53.399Z,21.15
2022-07-30T12:08:34.064Z,21.14
2022-07-30T12:11:05.601Z,21.13
2022-07-30T12:13:43.927Z,21.29
2022-07-30T12:16:18.268Z,21.53
2022-07-30T12:18:48.419Z,21.66
2022-07-30T12:21:18.078Z,21.79
2022-07-30T12:23:57.285Z,21.71
2022-07-30T12:26:29.080Z,21.73
2022-07-30T12:29:02.808Z,21.73
2022-07-30T12:31:33.793Z,21.85
2022-07-30T12:34:03.035Z,21.84
2022-07-30T12:36:33.956Z,21.78
2022-07-30T12:39:06.803Z,21.72
2022-07-30T12:41:48.348Z,21.73
2022-07-30T12:44:39.701Z,21.83
2022-07-30T12:47:22.062Z,21.74
2022-07-30T12:49:57.622Z,21.69
2022-07-30T12:52:31.295Z,21.63
2022-07-30T12:55:09.087Z,21.83
2022-07-30T12:58:02.952Z,21.87
2022-07-30T13:00:52.278Z,21.90
2022-07-30T13:03:23.231Z,21.84
2022-07-30T13:05:55.399Z,21.72
2022-07-30T13:08:55.983Z,21.77
2022-07-30T13:11:27.072Z,21.89
2022-07-30T13:13:55.989Z,21.88
2022-07-30T13:16:27.229Z,21.99
2022-07-30T13:18:55.995Z,21.96
2022-07-30T13:21:25.734Z,21.98
2022-07-30T13:23:58.694Z,22.03
2022-07-30T13:26:29.578Z,22.05
2022-07-30T13:29:01.873Z,22.13
2022-07-30T13:31:42.424Z,22.14
2022-07-30T13:34:12.304Z,22.25
2022-07-30T13:36:41.845Z,22.20
2022-07-30T13:39:12.138Z,22.15
2022-07-30T13:41:42.154Z,22.04
2022-07-30T13:44:11.300Z,22.14
2022-07-30T13:46:44.277Z,22.15
2022-07-30T13:49:13.242Z,22.10
2022-07-30T13:51:42.085Z,22.31
2022-07-30T13:54:13.852Z,22.31
2022-07-30T13:56:42.967Z,22.22
2022-07-30T13:59:11.895Z,22.27
2022-07-30T14:01:42.702Z,22.40
2022-07-30T14:04:11.572Z,22.48
2022-07-30T14:06:40.481Z,22.47
2022-07-30T14:09:09.720Z,22.61
2022-07-30T14:11:38.456Z,22.62
2022-07-30T14:14:07.217Z,22.35
2022-07-30T14:16:45.100Z,22.66
2022-07-30T14:19:23.386Z,22.69
2022-07-30T14:21:56.473Z,22.85
2022-07-30T14:24:25.356Z,22.73
2022-07-30T14:26:57.961Z,22.55
2022-07-30T14:29:31.330Z,22.36
2022-07-30T14:32:00.046Z,22.14
2022-07-30T14:34:30.178Z,22.24
2022-07-30T14:36:59.205Z,22.39
2022-07-30T14:39:28.209Z,22.30
2022-07-30T14:41:57.161Z,22.22
2022-07-30T14:44:26.056Z,22.38
2022-07-30T14:46:55.010Z,22.36
2022-07-30T14:49:24.609Z,22.29
2022-07-30T14:51:55.947Z,22.38
2022-07-30T14:54:24.703Z,22.73
2022-07-30T14:56:58.260Z,23.17
2022-07-30T14:59:28.756Z,23.28
2022-07-30T15:01:58.008Z,23.10
2022-07-30T15:04:26.947Z,23.30
2022-07-30T15:06:57.353Z,23.22
2022-07-30T15:09:26.191Z,23.41
2022-07-30T15:12:10.967Z,23.40
2022-07-30T15:14:41.871Z,23.35
2022-07-30T15:17:12.556Z,23.23
2022-07-30T15:19:46.288Z,23.31
2022-07-30T15:22:20.899Z,23.54
2022-07-30T15:24:50.113Z,23.22
2022-07-30T15:27:33.679Z,22.77
2022-07-30T15:30:03.872Z,22.53
2022-07-30T15:32:33.103Z,22.11
2022-07-30T15:35:01.913Z,21.95
2022-07-30T15:37:33.694Z,21.74
2022-07-30T15:40:05.732Z,21.49
2022-07-30T15:42:34.554Z,21.28
2022-07-30T15:45:21.382Z,21.19
2022-07-30T15:47:52.542Z,21.12
2022-07-30T15:50:21.531Z,21.06
2022-07-30T15:52:51.734Z,21.03
2022-07-30T15:55:20.706Z,21.05
2022-07-30T15:57:49.571Z,21.06
2022-07-30T16:00:18.786Z,21.06
2022-07-30T16:02:47.608Z,21.06
2022-07-30T16:05:19.554Z,21.02
2022-07-30T16:07:48.392Z,21.10
2022-07-30T16:10:21.533Z,20.98
2022-07-30T16:12:50.661Z,20.95
2022-07-30T16:15:19.751Z,20.96
2022-07-30T16:17:48.531Z,21.06
2022-07-30T16:20:17.433Z,21.03
2022-07-30T16:22:46.179Z,21.05
2022-07-30T16:25:19.527Z,21.54
2022-07-30T16:27:48.961Z,22.21
2022-07-30T16:30:18.049Z,22.68
2022-07-30T16:32:46.863Z,22.92
2022-07-30T16:35:15.716Z,23.06
2022-07-30T16:37:45.227Z,23.40
2022-07-30T16:40:14.434Z,23.56
2022-07-30T16:42:44.722Z,23.73
2022-07-30T16:45:14.014Z,23.66
2022-07-30T16:47:42.987Z,23.86
2022-07-30T16:50:12.251Z,23.73
2022-07-30T16:52:41.076Z,23.36
2022-07-30T16:55:12.734Z,22.85
2022-07-30T16:57:41.653Z,22.85
2022-07-30T17:00:15.544Z,23.24
2022-07-30T17:02:44.314Z,23.59
2022-07-30T17:05:13.943Z,23.87
2022-07-30T17:07:42.918Z,24.09
2022-07-30T17:10:12.930Z,24.42
2022-07-30T17:12:42.635Z,24.68
2022-07-30T17:15:31.819Z,24.88
2022-07-30T17:18:02.007Z,25.01
2022-07-30T17:20:32.246Z,24.65
2022-07-30T17:23:01.113Z,24.68
2022-07-30T17:25:29.928Z,24.24
2022-07-30T17:28:00.134Z,23.49
2022-07-30T17:30:31.073Z,22.83
2022-07-30T17:32:59.838Z,22.39
2022-07-30T17:35:28.975Z,22.02
2022-07-30T17:37:57.780Z,21.62
2022-07-30T17:40:31.371Z,21.45
2022-07-30T17:43:04.829Z,21.24
2022-07-30T17:45:36.844Z,21.03
2022-07-30T17:48:12.339Z,20.80
2022-07-30T17:50:41.325Z,20.80
2022-07-30T17:53:10.450Z,20.77
2022-07-30T17:55:39.189Z,20.57
2022-07-30T17:58:08.162Z,20.35
2022-07-30T18:00:38.527Z,20.14
2022-07-30T18:03:07.447Z,19.92
2022-07-30T18:05:36.468Z,19.77
2022-07-30T18:08:05.715Z,19.60
2022-07-30T18:10:34.539Z,19.40
2022-07-30T18:13:03.700Z,19.27
2022-07-30T18:15:53.969Z,19.19
2022-07-30T18:18:22.767Z,19.10
2022-07-30T18:20:52.379Z,18.97
2022-07-30T18:23:21.319Z,18.92
2022-07-30T18:25:54.475Z,18.81
2022-07-30T18:28:23.835Z,18.75
2022-07-30T18:30:55.242Z,18.59
2022-07-30T18:33:24.139Z,18.51
2022-07-30T18:35:53.071Z,18.42
2022-07-30T18:38:21.892Z,18.33
2022-07-30T18:40:58.727Z,18.14
2022-07-30T18:43:29.371Z,18.06
2022-07-30T18:46:02.609Z,18.00
2022-07-30T18:48:31.437Z,17.91
2022-07-30T18:51:08.677Z,17.88
2022-07-30T18:53:42.728Z,17.79
2022-07-30T18:56:29.352Z,17.74
2022-07-30T18:58:58.680Z,17.72
2022-07-30T19:01:32.687Z,17.64
2022-07-30T19:04:01.631Z,17.56
2022-07-30T19:06:31.510Z,17.50
2022-07-30T19:09:00.885Z,17.39
2022-07-30T19:11:30.080Z,17.33
2022-07-30T19:13:58.969Z,17.25
2022-07-30T19:16:29.132Z,17.23
2022-07-30T19:18:57.889Z,17.19
2022-07-30T19:21:26.703Z,17.14
2022-07-30T19:23:55.524Z,17.11
2022-07-30T19:26:24.383Z,17.06
2022-07-30T19:28:53.209Z,17.05
2022-07-30T19:31:22.099Z,17.00
2022-07-30T19:33:52.277Z,16.96
2022-07-30T19:36:21.762Z,16.88
2022-07-30T19:38:50.554Z,16.85
2022-07-30T19:41:20.006Z,16.71
2022-07-30T19:43:57.776Z,16.69
2022-07-30T19:46:27.794Z,16.60
2022-07-30T19:49:00.265Z,16.58
2022-07-30T19:52:09.867Z,16.51
2022-07-30T19:54:18.811Z,16.51
2022-07-30T19:56:47.609Z,16.49
2022-07-30T19:59:19.276Z,16.38
2022-07-30T20:02:10.603Z,16.35
2022-07-30T20:04:44.115Z,16.32
2022-07-30T20:07:12.956Z,16.25
2022-07-30T20:09:43.018Z,16.22
2022-07-30T20:12:14.597Z,16.19
2022-07-30T20:14:44.773Z,16.14
2022-07-30T20:17:14.495Z,16.12
2022-07-30T20:19:47.588Z,16.07
2022-07-30T20:22:17.262Z,16.06
2022-07-30T20:24:48.022Z,15.98
2022-07-30T20:27:38.293Z,16.00
2022-07-30T20:30:07.700Z,15.93
2022-07-30T20:32:36.675Z,15.90
2022-07-30T20:35:12.284Z,15.86
2022-07-30T20:37:55.372Z,15.80
2022-07-30T20:40:27.065Z,15.75
2022-07-30T20:42:59.958Z,15.70
2022-07-30T20:45:37.899Z,15.68
2022-07-30T20:48:17.232Z,15.65
2022-07-30T20:50:55.642Z,15.58
2022-07-30T20:53:24.435Z,15.52
2022-07-30T20:56:08.412Z,15.47
2022-07-30T20:58:39.480Z,15.45
2022-07-30T21:01:09.644Z,15.51
2022-07-30T21:03:48.071Z,15.44
2022-07-30T21:06:19.552Z,15.42
2022-07-30T21:08:48.349Z,15.44
2022-07-30T21:11:19.540Z,15.42
2022-07-30T21:13:48.276Z,15.35
2022-07-30T21:16:21.650Z,15.32
2022-07-30T21:18:50.884Z,15.26
2022-07-30T21:21:29.276Z,15.25
2022-07-30T21:24:11.945Z,15.16
2022-07-30T21:26:41.662Z,15.16
2022-07-30T21:29:10.746Z,15.13
2022-07-30T21:32:01.998Z,15.07
2022-07-30T21:34:35.983Z,15.02
2022-07-30T21:37:21.071Z,14.94
2022-07-30T21:39:50.245Z,14.89
2022-07-30T21:42:26.699Z,14.86
2022-07-30T21:44:59.285Z,14.79
2022-07-30T21:47:33.471Z,14.75
2022-07-30T21:50:02.395Z,14.71
2022-07-30T21:52:33.336Z,14.66
2022-07-30T21:55:07.025Z,14.65
2022-07-30T21:57:35.795Z,14.63
2022-07-30T22:00:10.676Z,14.63
2022-07-30T22:02:40.633Z,14.65
2022-07-30T22:05:23.434Z,14.59
2022-07-30T22:08:10.436Z,14.55
2022-07-30T22:10:41.318Z,14.48
2022-07-30T22:13:11.371Z,14.38
2022-07-30T22:15:43.677Z,14.38
2022-07-30T22:18:12.641Z,14.34
2022-07-30T22:20:42.740Z,14.30
2022-07-30T22:23:12.999Z,14.25
2022-07-30T22:25:45.024Z,14.16
2022-07-30T22:28:14.503Z,14.13
2022-07-30T22:30:45.845Z,14.08
2022-07-30T22:33:17.460Z,14.03
2022-07-30T22:35:49.822Z,14.03
2022-07-30T22:38:20.525Z,14.00
2022-07-30T22:40:51.055Z,13.94
2022-07-30T22:43:20.209Z,13.84
2022-07-30T22:45:53.214Z,13.83
2022-07-30T22:48:27.325Z,13.83
2022-07-30T22:50:59.569Z,13.79
2022-07-30T22:54:10.560Z,13.79
2022-07-30T22:56:24.063Z,13.75
2022-07-30T22:58:53.577Z,13.72
2022-07-30T23:01:23.043Z,13.71
2022-07-30T23:03:51.909Z,13.71
2022-07-30T23:06:22.914Z,13.65
2022-07-30T23:08:53.162Z,13.64
2022-07-30T23:11:22.162Z,13.60
2022-07-30T23:13:53.926Z,13.55
2022-07-30T23:16:23.250Z,13.54
2022-07-30T23:18:52.034Z,13.49
2022-07-30T23:21:22.112Z,13.47
2022-07-30T23:23:52.334Z,13.46
2022-07-30T23:26:21.120Z,13.45
2022-07-30T23:28:50.060Z,13.44
2022-07-30T23:31:18.903Z,13.41
2022-07-30T23:33:47.726Z,13.46
2022-07-30T23:36:16.602Z,13.46
2022-07-30T23:38:46.295Z,13.48
2022-07-30T23:41:29.860Z,13.51
2022-07-30T23:43:59.952Z,13.59
2022-07-30T23:46:28.786Z,13.62
2022-07-30T23:48:57.617Z,13.60
2022-07-30T23:51:26.491Z,13.66
2022-07-30T23:54:06.584Z,13.66
2022-07-30T23:56:36.865Z,13.69
2022-07-30T23:59:05.848Z,13.67
